createdAt,value
2019-02-24T00:00:48.382Z,6.40
2019-02-24T00:04:14.596Z,6.40
2019-02-24T00:07:40.238Z,6.30
2019-02-24T00:11:05.946Z,6.30
2019-02-24T00:14:31.706Z,6.30
2019-02-24T00:17:57.400Z,6.30
2019-02-24T00:21:23.073Z,6.30
2019-02-24T00:24:48.692Z,6.20
2019-02-24T00:28:14.400Z,6.20
2019-02-24T00:31:40.142Z,6.20
2019-02-24T00:35:05.843Z,6.20
2019-02-24T00:38:31.547Z,6.20
2019-02-24T00:41:57.516Z,6.20
2019-02-24T00:45:23.446Z,6.20
2019-02-24T00:48:49.113Z,6.20
2019-02-24T00:52:15.357Z,6.30
2019-02-24T00:55:41.090Z,6.30
2019-02-24T00:59:06.813Z,6.30
2019-02-24T01:02:32.422Z,6.30
2019-02-24T01:05:58.090Z,6.40
2019-02-24T01:09:24.160Z,6.40
2019-02-24T01:12:49.826Z,6.50
2019-02-24T01:16:15.479Z,6.50
2019-02-24T01:19:41.279Z,6.40
2019-02-24T01:23:06.885Z,6.40
2019-02-24T01:26:32.519Z,6.30
2019-02-24T01:29:58.230Z,6.40
2019-02-24T01:33:23.833Z,6.40
2019-02-24T01:36:49.649Z,6.40
2019-02-24T01:40:15.290Z,6.30
2019-02-24T01:43:41.192Z,6.30
2019-02-24T01:47:06.822Z,6.30
2019-02-24T01:50:32.463Z,6.20
2019-02-24T01:53:58.117Z,6.10
2019-02-24T01:57:23.749Z,6.00
2019-02-24T02:00:49.396Z,6.00
2019-02-24T02:04:15.107Z,6.00
2019-02-24T02:07:40.806Z,6.10
2019-02-24T02:11:06.508Z,6.10
2019-02-24T02:14:32.220Z,6.10
2019-02-24T02:17:57.853Z,6.10
2019-02-24T02:21:23.474Z,6.10
2019-02-24T02:24:49.106Z,6.10
2019-02-24T02:28:14.752Z,6.10
2019-02-24T02:31:40.408Z,6.10
2019-02-24T02:35:07.384Z,6.10
2019-02-24T02:38:33.008Z,6.10
2019-02-24T02:41:58.638Z,6.00
2019-02-24T02:45:24.241Z,6.00
2019-02-24T02:48:49.858Z,5.90
2019-02-24T02:52:15.505Z,5.80
2019-02-24T02:55:42.860Z,5.80
2019-02-24T02:59:08.475Z,5.70
2019-02-24T03:02:34.480Z,5.60
2019-02-24T03:06:10.989Z,5.60
2019-02-24T03:09:36.605Z,5.50
2019-02-24T03:13:02.209Z,5.50
2019-02-24T03:16:29.096Z,5.50
2019-02-24T03:19:54.678Z,5.50
2019-02-24T03:23:20.286Z,5.50
2019-02-24T03:26:46.227Z,5.50
2019-02-24T03:30:12.320Z,5.50
2019-02-24T03:33:38.094Z,5.50
2019-02-24T03:37:03.937Z,5.50
2019-02-24T03:40:29.594Z,5.50
2019-02-24T03:43:55.260Z,5.50
2019-02-24T03:47:21.233Z,5.40
2019-02-24T03:50:46.812Z,5.30
2019-02-24T03:54:12.453Z,5.30
2019-02-24T03:57:38.126Z,5.30
2019-02-24T04:01:03.789Z,5.20
2019-02-24T04:04:29.438Z,5.20
2019-02-24T04:07:55.053Z,5.20
2019-02-24T04:11:20.637Z,5.20
2019-02-24T04:14:46.631Z,5.20
2019-02-24T04:18:12.254Z,5.20
2019-02-24T04:21:37.883Z,5.20
2019-02-24T04:25:03.514Z,5.20
2019-02-24T04:28:29.111Z,5.10
2019-02-24T04:31:55.154Z,5.10
2019-02-24T04:35:20.883Z,5.10
2019-02-24T04:38:46.614Z,5.10
2019-02-24T04:42:12.733Z,5.10
2019-02-24T04:45:38.621Z,5.10
2019-02-24T04:49:04.175Z,5.20
2019-02-24T04:52:29.836Z,5.30
2019-02-24T04:55:55.781Z,5.30
2019-02-24T04:59:21.473Z,5.30
2019-02-24T05:02:47.094Z,5.30
2019-02-24T05:06:13.176Z,5.30
2019-02-24T05:09:38.842Z,5.30
2019-02-24T05:13:04.773Z,5.20
2019-02-24T05:16:30.402Z,5.30
2019-02-24T05:19:56.288Z,5.30
2019-02-24T05:23:21.874Z,5.30
2019-02-24T05:26:47.863Z,5.30
2019-02-24T05:30:13.553Z,5.30
2019-02-24T05:33:39.176Z,5.30
2019-02-24T05:37:04.823Z,5.30
2019-02-24T05:40:30.484Z,5.20
2019-02-24T05:43:56.148Z,5.20
2019-02-24T05:47:21.794Z,5.20
2019-02-24T05:50:47.449Z,5.30
2019-02-24T05:54:13.056Z,5.30
2019-02-24T05:57:38.665Z,5.30
2019-02-24T06:01:04.267Z,5.20
2019-02-24T06:04:29.857Z,5.20
2019-02-24T06:07:53.527Z,5.20
2019-02-24T06:11:16.395Z,5.10
2019-02-24T06:14:39.349Z,5.20
2019-02-24T06:18:04.746Z,5.20
2019-02-24T06:21:27.645Z,5.20
2019-02-24T06:29:30.048Z,5.20
2019-02-24T06:32:53.160Z,5.20
2019-02-24T06:36:16.569Z,5.20
2019-02-24T06:39:39.931Z,5.10
2019-02-24T06:43:02.948Z,5.10
2019-02-24T06:46:26.130Z,5.10
2019-02-24T06:49:49.424Z,5.10
2019-02-24T06:53:12.434Z,5.10
2019-02-24T06:56:35.466Z,5.10
2019-02-24T06:59:58.514Z,5.20
2019-02-24T07:03:21.679Z,5.30
2019-02-24T07:06:44.850Z,5.40
2019-02-24T07:10:07.898Z,5.40
2019-02-24T07:13:32.142Z,5.40
2019-02-24T07:16:55.784Z,5.50
2019-02-24T07:20:20.688Z,5.70
2019-02-24T07:23:44.317Z,5.70
2019-02-24T07:27:07.348Z,5.70
2019-02-24T07:30:30.606Z,5.70
2019-02-24T07:33:53.801Z,5.80
2019-02-24T07:37:17.548Z,5.80
2019-02-24T07:40:40.699Z,5.90
2019-02-24T07:44:09.332Z,6.00
2019-02-24T07:47:32.494Z,6.00
2019-02-24T07:50:55.642Z,6.10
2019-02-24T07:54:18.785Z,6.20
2019-02-24T07:57:55.096Z,6.20
2019-02-24T08:01:57.306Z,6.30
2019-02-24T08:09:31.217Z,6.40
2019-02-24T08:13:13.773Z,6.50
2019-02-24T08:17:09.562Z,6.50
2019-02-24T08:20:45.215Z,6.50
2019-02-24T08:24:20.471Z,6.50
2019-02-24T08:31:39.188Z,6.60
2019-02-24T08:35:21.758Z,6.60
2019-02-24T08:38:57.592Z,6.70
2019-02-24T08:42:40.197Z,6.90
2019-02-24T08:46:15.848Z,6.90
2019-02-24T08:49:58.629Z,7.10
2019-02-24T08:53:34.396Z,7.20
2019-02-24T08:57:16.918Z,7.40
2019-02-24T09:00:52.185Z,7.50
2019-02-24T09:04:34.771Z,7.60
2019-02-24T09:08:10.828Z,7.70
2019-02-24T09:11:53.464Z,7.80
2019-02-24T09:15:29.539Z,7.90
2019-02-24T09:19:05.190Z,8.00
2019-02-24T09:22:40.502Z,8.10
2019-02-24T09:26:15.744Z,8.30
2019-02-24T09:29:38.912Z,8.40
2019-02-24T09:33:14.733Z,8.70
2019-02-24T09:36:57.362Z,9.00
2019-02-24T09:40:33.484Z,9.30
2019-02-24T09:44:16.443Z,9.70
2019-02-24T09:47:52.089Z,10.50
2019-02-24T09:51:34.850Z,11.60
2019-02-24T09:55:10.658Z,12.70
2019-02-24T09:58:53.552Z,13.80
2019-02-24T10:02:29.468Z,14.90
2019-02-24T10:05:53.161Z,15.80
2019-02-24T10:09:29.030Z,16.60
2019-02-24T10:13:12.007Z,17.20
2019-02-24T10:16:35.332Z,17.20
2019-02-24T10:20:10.931Z,17.40
2019-02-24T10:23:53.503Z,17.70
2019-02-24T10:27:28.837Z,17.90
2019-02-24T10:31:19.615Z,18.80
2019-02-24T10:35:08.955Z,19.30
2019-02-24T10:39:13.716Z,19.60
2019-02-24T10:46:48.351Z,19.40
2019-02-24T10:50:33.429Z,19.10
2019-02-24T10:54:08.813Z,19.00
2019-02-24T10:57:51.429Z,19.00
2019-02-24T11:01:29.909Z,19.20
2019-02-24T11:05:11.985Z,18.60
2019-02-24T11:08:47.475Z,18.40
2019-02-24T11:12:30.195Z,18.30
2019-02-24T11:16:05.706Z,18.30
2019-02-24T11:19:41.588Z,19.20
2019-02-24T11:23:24.623Z,19.30
2019-02-24T11:27:00.099Z,19.80
2019-02-24T11:30:35.568Z,20.40
2019-02-24T11:34:18.626Z,20.90
2019-02-24T11:37:54.969Z,21.60
2019-02-24T11:41:31.267Z,22.50
2019-02-24T11:45:14.411Z,23.30
2019-02-24T11:48:50.604Z,23.20
2019-02-24T11:52:33.241Z,23.80
2019-02-24T11:56:09.255Z,23.40
2019-02-24T11:59:44.628Z,24.00
2019-02-24T12:03:27.264Z,24.30
2019-02-24T12:07:03.464Z,24.30
2019-02-24T12:10:39.434Z,24.60
2019-02-24T12:14:22.109Z,24.30
2019-02-24T12:17:58.099Z,24.60
2019-02-24T12:21:34.474Z,24.10
2019-02-24T12:25:10.254Z,24.20
2019-02-24T12:28:53.084Z,24.10
2019-02-24T12:32:28.299Z,24.70
2019-02-24T12:36:33.023Z,26.10
2019-02-24T12:40:08.424Z,26.50
2019-02-24T12:43:51.535Z,26.10
2019-02-24T12:47:27.669Z,26.60
2019-02-24T12:51:10.507Z,27.60
2019-02-24T12:54:45.966Z,28.30
2019-02-24T12:58:28.560Z,27.70
2019-02-24T13:02:07.346Z,27.30
2019-02-24T13:05:50.329Z,27.70
2019-02-24T13:09:25.887Z,28.20
2019-02-24T13:13:08.488Z,28.00
2019-02-24T13:16:43.824Z,28.80
2019-02-24T13:20:19.494Z,28.60
2019-02-24T13:23:56.816Z,28.20
2019-02-24T13:27:39.446Z,27.70
2019-02-24T13:31:15.184Z,27.30
2019-02-24T13:34:57.763Z,27.40
2019-02-24T13:38:33.302Z,27.30
2019-02-24T13:42:16.839Z,28.40
2019-02-24T13:45:52.792Z,28.00
2019-02-24T13:49:35.672Z,29.00
2019-02-24T13:53:11.466Z,29.40
2019-02-24T13:56:54.331Z,29.70
2019-02-24T14:00:29.977Z,29.80
2019-02-24T14:04:12.602Z,29.40
2019-02-24T14:07:36.051Z,29.50
2019-02-24T14:11:11.925Z,30.30
2019-02-24T14:14:54.433Z,30.60
2019-02-24T14:18:30.470Z,30.20
2019-02-24T14:22:13.032Z,29.90
2019-02-24T14:25:49.549Z,30.00
2019-02-24T14:29:32.122Z,30.10
2019-02-24T14:33:07.898Z,30.10
2019-02-24T14:36:50.575Z,31.00
2019-02-24T14:40:26.276Z,31.30
2019-02-24T14:44:08.782Z,32.10
2019-02-24T14:47:44.921Z,31.50
2019-02-24T14:51:27.819Z,31.60
2019-02-24T14:55:03.925Z,31.90
2019-02-24T14:58:46.959Z,32.30
2019-02-24T15:02:22.920Z,32.40
2019-02-24T15:05:46.263Z,34.10
2019-02-24T15:09:09.733Z,34.10
2019-02-24T15:12:33.042Z,34.90
2019-02-24T15:15:56.173Z,35.60
2019-02-24T15:19:19.530Z,35.10
2019-02-24T15:22:42.861Z,34.50
2019-02-24T15:26:06.061Z,35.80
2019-02-24T15:29:29.173Z,35.10
2019-02-24T15:32:52.297Z,35.10
2019-02-24T15:36:15.418Z,34.60
2019-02-24T15:39:38.654Z,35.60
2019-02-24T15:43:01.839Z,35.30
2019-02-24T15:46:26.830Z,34.40
2019-02-24T15:49:50.212Z,34.80
2019-02-24T15:53:13.457Z,34.40
2019-02-24T15:56:36.623Z,34.00
2019-02-24T15:59:59.875Z,34.10
2019-02-24T16:03:23.028Z,33.80
2019-02-24T16:06:46.515Z,32.90
2019-02-24T16:10:13.057Z,32.40
2019-02-24T16:13:36.955Z,31.90
2019-02-24T16:17:00.107Z,30.50
2019-02-24T16:20:24.523Z,27.70
2019-02-24T16:23:48.072Z,25.60
2019-02-24T16:27:11.308Z,23.90
2019-02-24T16:30:34.541Z,22.60
2019-02-24T16:33:57.928Z,21.60
2019-02-24T16:37:21.189Z,20.50
2019-02-24T16:40:44.467Z,19.70
2019-02-24T16:44:07.561Z,19.00
2019-02-24T16:47:31.288Z,18.30
2019-02-24T16:50:54.458Z,17.80
2019-02-24T16:54:17.599Z,17.40
2019-02-24T16:57:40.701Z,17.00
2019-02-24T17:01:04.003Z,16.70
2019-02-24T17:04:27.218Z,16.50
2019-02-24T17:07:50.437Z,16.30
2019-02-24T17:11:13.655Z,16.10
2019-02-24T17:14:36.994Z,15.90
2019-02-24T17:18:00.419Z,15.70
2019-02-24T17:21:23.516Z,15.40
2019-02-24T17:24:47.096Z,15.30
2019-02-24T17:28:10.343Z,15.10
2019-02-24T17:31:33.621Z,14.90
2019-02-24T17:34:57.120Z,14.70
2019-02-24T17:38:20.381Z,14.60
2019-02-24T17:41:43.577Z,14.40
2019-02-24T17:45:09.277Z,14.20
2019-02-24T17:48:33.433Z,14.00
2019-02-24T17:51:56.610Z,13.90
2019-02-24T17:55:19.860Z,13.70
2019-02-24T17:58:44.048Z,13.60
2019-02-24T18:02:07.597Z,13.50
2019-02-24T18:05:30.973Z,13.30
2019-02-24T18:08:57.895Z,13.20
2019-02-24T18:12:21.307Z,13.10
2019-02-24T18:15:44.439Z,13.00
2019-02-24T18:19:10.614Z,12.90
2019-02-24T18:22:37.204Z,12.70
2019-02-24T18:26:00.965Z,12.60
2019-02-24T18:29:25.451Z,12.40
2019-02-24T18:32:48.939Z,12.30
2019-02-24T18:36:12.254Z,12.20
2019-02-24T18:39:35.730Z,12.00
2019-02-24T18:43:01.046Z,11.90
2019-02-24T18:46:24.796Z,11.90
2019-02-24T18:49:48.246Z,11.80
2019-02-24T18:53:15.172Z,11.80
2019-02-24T18:56:38.624Z,11.80
2019-02-24T19:00:01.892Z,11.80
2019-02-24T19:03:26.773Z,11.70
2019-02-24T19:06:51.173Z,11.60
2019-02-24T19:10:15.636Z,11.50
2019-02-24T19:13:39.348Z,11.30
2019-02-24T19:17:02.768Z,11.20
2019-02-24T19:20:25.928Z,11.00
2019-02-24T19:23:49.321Z,10.90
2019-02-24T19:27:12.800Z,10.70
2019-02-24T19:30:36.001Z,10.60
2019-02-24T19:34:06.452Z,10.50
2019-02-24T19:37:24.859Z,10.50
2019-02-24T19:40:53.452Z,10.40
2019-02-24T19:44:16.571Z,10.20
2019-02-24T19:47:40.382Z,10.20
2019-02-24T19:51:03.662Z,10.10
2019-02-24T19:54:27.148Z,10.00
2019-02-24T19:57:53.142Z,9.90
2019-02-24T20:01:16.394Z,9.70
2019-02-24T20:04:39.897Z,9.70
2019-02-24T20:08:03.296Z,9.60
2019-02-24T20:11:26.756Z,9.50
2019-02-24T20:14:50.042Z,9.40
2019-02-24T20:18:13.314Z,9.40
2019-02-24T20:21:38.156Z,9.30
2019-02-24T20:25:01.415Z,9.20
2019-02-24T20:28:24.661Z,9.20
2019-02-24T20:31:47.834Z,9.20
2019-02-24T20:35:11.056Z,9.20
2019-02-24T20:38:34.306Z,9.10
2019-02-24T20:41:57.499Z,9.00
2019-02-24T20:45:22.964Z,8.90
2019-02-24T20:48:46.247Z,8.90
2019-02-24T20:52:09.605Z,8.90
2019-02-24T20:55:35.926Z,8.90
2019-02-24T20:58:59.201Z,9.00
2019-02-24T21:02:22.527Z,9.00
2019-02-24T21:05:45.973Z,9.10
2019-02-24T21:09:09.281Z,9.20
2019-02-24T21:12:32.489Z,9.40
2019-02-24T21:15:55.873Z,9.30
2019-02-24T21:19:19.350Z,9.00
2019-02-24T21:22:42.483Z,8.90
2019-02-24T21:26:05.591Z,8.70
2019-02-24T21:29:28.720Z,8.50
2019-02-24T21:32:51.968Z,8.60
2019-02-24T21:36:15.879Z,8.50
2019-02-24T21:39:39.065Z,8.50
2019-02-24T21:43:02.345Z,8.50
2019-02-24T21:46:25.448Z,8.40
2019-02-24T21:49:48.559Z,8.30
2019-02-24T21:53:11.671Z,8.20
2019-02-24T21:56:34.749Z,8.20
2019-02-24T21:59:58.247Z,8.10
2019-02-24T22:03:21.452Z,8.00
2019-02-24T22:06:44.846Z,7.90
2019-02-24T22:10:09.027Z,7.80
2019-02-24T22:13:32.473Z,7.70
2019-02-24T22:16:55.682Z,7.70
2019-02-24T22:20:19.097Z,7.70
2019-02-24T22:23:42.195Z,7.60
2019-02-24T22:27:05.301Z,7.50
2019-02-24T22:30:28.424Z,7.60
2019-02-24T22:33:51.509Z,7.50
2019-02-24T22:37:14.714Z,7.50
2019-02-24T22:40:37.805Z,7.50
2019-02-24T22:44:00.906Z,7.40
2019-02-24T22:47:24.031Z,7.40
2019-02-24T22:50:47.588Z,7.50
2019-02-24T22:54:11.066Z,7.40
2019-02-24T22:57:34.356Z,7.30
2019-02-24T23:01:07.304Z,7.10
2019-02-24T23:04:32.300Z,7.00
2019-02-24T23:07:56.445Z,6.90
2019-02-24T23:11:19.595Z,6.90
2019-02-24T23:14:43.834Z,6.90
2019-02-24T23:18:07.390Z,6.90
2019-02-24T23:21:30.616Z,6.80
2019-02-24T23:24:53.899Z,6.80
2019-02-24T23:28:17.193Z,6.70
2019-02-24T23:31:43.018Z,6.50
2019-02-24T23:35:06.403Z,6.40
2019-02-24T23:38:29.598Z,6.30
2019-02-24T23:41:52.860Z,6.30
2019-02-24T23:45:15.929Z,6.30
2019-02-24T23:48:39.056Z,6.20
2019-02-24T23:52:02.160Z,6.20
2019-02-24T23:55:25.262Z,6.20
2019-02-24T23:58:48.378Z,6.10
